createdAt,value
2023-03-13T00:02:10.562Z,101391.44
2023-03-13T00:07:10.225Z,101400.41
2023-03-13T00:12:11.008Z,101406.72
2023-03-13T00:17:09.892Z,101413.88
2023-03-13T00:22:08.727Z,101412.13
2023-03-13T00:27:07.544Z,101416.66
2023-03-13T00:32:08.242Z,101411.56
2023-03-13T00:37:07.206Z,101411.75
2023-03-13T00:42:06.770Z,101420.59
2023-03-13T00:47:07.624Z,101418.88
2023-03-13T00:52:08.249Z,101424.19
2023-03-13T00:57:07.225Z,101426.13
2023-03-13T01:02:07.587Z,101423.66
2023-03-13T01:07:06.600Z,101429.28
2023-03-13T01:12:05.808Z,101444.16
2023-03-13T01:17:04.751Z,101441.06
2023-03-13T01:22:05.312Z,101447.00
2023-03-13T01:27:04.269Z,101445.56
2023-03-13T01:32:03.253Z,101449.28
2023-03-13T01:37:02.251Z,101453.41
2023-03-13T01:42:04.405Z,101456.09
2023-03-13T01:47:03.341Z,101459.78
2023-03-13T01:52:27.663Z,101449.69
2023-03-13T01:57:42.270Z,101471.94
2023-03-13T02:02:44.465Z,101475.25
2023-03-13T02:07:46.777Z,101475.38
2023-03-13T02:12:47.355Z,101477.13
2023-03-13T02:17:47.381Z,101483.47
2023-03-13T02:22:51.276Z,101492.22
2023-03-13T02:27:53.977Z,101494.69
2023-03-13T02:32:53.549Z,101503.41
2023-03-13T02:37:55.825Z,101512.88
2023-03-13T02:42:59.913Z,101515.50
2023-03-13T02:47:59.144Z,101519.81
2023-03-13T02:53:02.275Z,101519.72
2023-03-13T02:58:03.626Z,101524.97
2023-03-13T03:03:06.930Z,101536.16
2023-03-13T03:08:05.834Z,101541.28
2023-03-13T03:13:06.268Z,101546.53
2023-03-13T03:18:05.491Z,101557.88
2023-03-13T03:23:04.391Z,101552.78
2023-03-13T03:28:06.381Z,101566.03
2023-03-13T03:33:05.654Z,101566.00
2023-03-13T03:38:04.559Z,101583.31
2023-03-13T03:43:03.520Z,101602.34
2023-03-13T03:48:04.160Z,101616.31
2023-03-13T03:53:03.283Z,101613.28
2023-03-13T03:58:02.304Z,101624.47
2023-03-13T04:03:22.729Z,101633.03
2023-03-13T04:08:21.677Z,101639.94
2023-03-13T04:13:20.481Z,101651.31
2023-03-13T04:18:20.146Z,101655.69
2023-03-13T04:23:20.431Z,101658.22
2023-03-13T04:28:19.420Z,101664.25
2023-03-13T04:33:18.295Z,101679.97
2023-03-13T04:38:23.675Z,101688.56
2023-03-13T04:43:22.258Z,101695.50
2023-03-13T04:48:39.110Z,101693.00
2023-03-13T04:54:02.027Z,101705.09
2023-03-13T04:59:33.267Z,101697.31
2023-03-13T05:04:51.749Z,101713.81
2023-03-13T05:10:24.310Z,101720.72
2023-03-13T05:15:41.582Z,101719.00
2023-03-13T05:21:03.686Z,101716.41
2023-03-13T05:26:39.872Z,101723.25
2023-03-13T05:31:57.858Z,101730.25
2023-03-13T05:37:15.424Z,101726.78
2023-03-13T05:42:18.363Z,101726.75
2023-03-13T05:47:31.460Z,101740.56
2023-03-13T05:52:36.181Z,101739.63
2023-03-13T05:57:50.484Z,101743.25
2023-03-13T06:02:54.676Z,101752.84
2023-03-13T06:08:03.100Z,101751.22
2023-03-13T06:13:17.389Z,101768.47
2023-03-13T06:18:18.726Z,101754.59
2023-03-13T06:23:17.828Z,101757.31
2023-03-13T06:28:18.590Z,101756.16
2023-03-13T06:33:17.421Z,101744.00
2023-03-13T06:38:16.305Z,101734.38
2023-03-13T06:43:15.098Z,101724.84
2023-03-13T06:48:15.239Z,101723.84
2023-03-13T06:53:17.896Z,101734.19
2023-03-13T06:58:31.111Z,101743.69
2023-03-13T07:03:32.725Z,101749.72
2023-03-13T07:08:31.673Z,101742.44
2023-03-13T07:13:30.670Z,101736.44
2023-03-13T07:18:29.425Z,101744.19
2023-03-13T07:23:30.554Z,101740.09
2023-03-13T07:28:30.909Z,101746.03
2023-03-13T07:33:29.685Z,101744.78
2023-03-13T07:38:29.871Z,101732.25
2023-03-13T07:43:29.547Z,101739.03
2023-03-13T07:48:31.334Z,101749.03
2023-03-13T07:53:32.095Z,101741.97
2023-03-13T07:58:33.179Z,101745.00
2023-03-13T08:03:32.043Z,101755.44
2023-03-13T08:08:32.587Z,101742.09
2023-03-13T08:13:32.305Z,101744.63
2023-03-13T08:18:34.830Z,101740.84
2023-03-13T08:23:35.713Z,101736.28
2023-03-13T08:28:35.058Z,101739.66
2023-03-13T08:33:33.823Z,101731.19
2023-03-13T08:38:34.514Z,101727.75
2023-03-13T08:43:33.275Z,101740.50
2023-03-13T08:48:32.036Z,101719.38
2023-03-13T08:53:31.551Z,101717.78
2023-03-13T08:58:32.060Z,101702.34
2023-03-13T09:03:31.037Z,101710.41
2023-03-13T09:08:31.542Z,101709.53
2023-03-13T09:13:33.656Z,101702.69
2023-03-13T09:18:33.327Z,101708.09
2023-03-13T09:23:32.282Z,101708.22
2023-03-13T09:28:32.770Z,101707.97
2023-03-13T09:33:31.459Z,101699.25
2023-03-13T09:38:30.195Z,101695.66
2023-03-13T09:43:42.358Z,101694.28
2023-03-13T09:48:45.760Z,101687.03
2023-03-13T09:53:49.734Z,101687.84
2023-03-13T09:58:55.834Z,101675.66
2023-03-13T10:04:04.003Z,101671.84
2023-03-13T10:09:02.902Z,101665.13
2023-03-13T10:14:11.802Z,101653.50
2023-03-13T10:19:16.268Z,101645.41
2023-03-13T10:24:19.643Z,101638.19
2023-03-13T10:29:27.225Z,101625.88
2023-03-13T10:34:26.564Z,101630.56
2023-03-13T10:39:27.161Z,101622.44
2023-03-13T10:44:33.260Z,101613.69
2023-03-13T10:49:33.921Z,101606.16
2023-03-13T10:54:35.334Z,101593.72
2023-03-13T10:59:44.662Z,101585.69
2023-03-13T11:04:43.375Z,101578.44
2023-03-13T11:09:42.200Z,101571.75
2023-03-13T11:14:42.915Z,101553.50
2023-03-13T11:19:56.270Z,101544.09
2023-03-13T11:25:04.398Z,101552.91
2023-03-13T11:30:19.739Z,101554.66
2023-03-13T11:35:38.454Z,101539.59
2023-03-13T11:40:45.159Z,101532.03
2023-03-13T11:46:00.528Z,101534.34
2023-03-13T11:51:13.043Z,101526.03
2023-03-13T11:56:17.168Z,101525.97
2023-03-13T12:01:19.695Z,101517.59
2023-03-13T12:06:28.702Z,101518.53
2023-03-13T12:11:31.042Z,101508.59
2023-03-13T12:16:42.554Z,101497.28
2023-03-13T12:21:48.515Z,101496.91
2023-03-13T12:26:51.080Z,101488.94
2023-03-13T12:31:58.869Z,101492.91
2023-03-13T12:37:02.813Z,101488.72
2023-03-13T12:42:24.847Z,101483.00
2023-03-13T12:47:33.185Z,101475.25
2023-03-13T12:53:04.331Z,101476.88
2023-03-13T12:58:22.521Z,101474.34
2023-03-13T13:03:36.315Z,101474.66
2023-03-13T13:08:38.888Z,101458.44
2023-03-13T13:13:41.399Z,101456.94
2023-03-13T13:18:41.547Z,101456.75
2023-03-13T13:23:43.827Z,101441.06
2023-03-13T13:28:44.039Z,101448.28
2023-03-13T13:33:46.769Z,101433.44
2023-03-13T13:38:45.928Z,101422.88
2023-03-13T13:43:46.382Z,101414.44
2023-03-13T13:48:46.776Z,101412.59
2023-03-13T13:53:47.395Z,101411.59
2023-03-13T13:58:48.455Z,101410.81
2023-03-13T14:03:51.987Z,101403.91
2023-03-13T14:08:56.398Z,101411.81
2023-03-13T14:14:14.435Z,101412.59
2023-03-13T14:19:29.358Z,101405.75
2023-03-13T14:24:29.041Z,101405.50
2023-03-13T14:29:29.951Z,101412.53
2023-03-13T14:34:33.569Z,101402.16
2023-03-13T14:39:45.514Z,101392.94
2023-03-13T14:44:50.438Z,101394.16
2023-03-13T14:49:58.914Z,101393.91
2023-03-13T14:55:02.309Z,101387.22
2023-03-13T15:00:32.612Z,101395.03
2023-03-13T15:05:35.202Z,101384.03
2023-03-13T15:10:36.893Z,101378.78
2023-03-13T15:15:35.775Z,101372.97
2023-03-13T15:20:36.234Z,101372.81
2023-03-13T15:25:35.038Z,101386.09
2023-03-13T15:30:34.194Z,101389.03
2023-03-13T15:35:35.935Z,101384.16
2023-03-13T15:40:34.772Z,101380.31
2023-03-13T15:45:33.701Z,101377.25
2023-03-13T15:50:32.426Z,101375.63
2023-03-13T15:55:32.676Z,101386.75
2023-03-13T16:00:46.315Z,101377.28
2023-03-13T16:05:54.018Z,101378.09
2023-03-13T16:10:58.122Z,101384.84
2023-03-13T16:15:58.486Z,101381.44
2023-03-13T16:21:06.357Z,101383.22
2023-03-13T16:26:10.437Z,101384.75
2023-03-13T16:31:21.723Z,101396.78
2023-03-13T16:36:25.138Z,101395.69
2023-03-13T16:41:27.798Z,101400.06
2023-03-13T16:46:29.073Z,101403.09
2023-03-13T16:51:30.756Z,101404.78
2023-03-13T16:56:34.810Z,101413.13
2023-03-13T17:01:35.652Z,101423.50
2023-03-13T17:06:37.313Z,101419.38
2023-03-13T17:11:47.710Z,101414.09
2023-03-13T17:16:50.487Z,101424.63
2023-03-13T17:21:54.026Z,101414.50
2023-03-13T17:26:57.267Z,101415.16
2023-03-13T17:31:56.406Z,101416.53
2023-03-13T17:36:55.246Z,101412.31
2023-03-13T17:42:09.398Z,101410.66
2023-03-13T17:47:18.957Z,101410.59
2023-03-13T17:52:25.856Z,101408.31
2023-03-13T17:57:29.623Z,101406.19
2023-03-13T18:02:29.367Z,101409.28
2023-03-13T18:07:30.055Z,101408.53
2023-03-13T18:12:30.194Z,101408.28
2023-03-13T18:17:29.072Z,101413.38
2023-03-13T18:22:27.892Z,101409.50
2023-03-13T18:27:26.777Z,101412.88
2023-03-13T18:32:27.006Z,101420.34
2023-03-13T18:37:28.374Z,101419.06
2023-03-13T18:42:27.285Z,101418.91
2023-03-13T18:47:28.702Z,101427.53
2023-03-13T18:52:27.595Z,101424.91
2023-03-13T18:57:28.624Z,101432.34
2023-03-13T19:02:28.811Z,101423.22
2023-03-13T19:07:28.951Z,101420.19
2023-03-13T19:12:27.892Z,101422.53
2023-03-13T19:17:29.617Z,101421.22
2023-03-13T19:22:28.419Z,101422.34
2023-03-13T19:27:27.256Z,101433.28
2023-03-13T19:32:26.116Z,101443.19
2023-03-13T19:37:33.494Z,101458.56
2023-03-13T19:42:35.473Z,101464.44
2023-03-13T19:47:34.320Z,101444.25
2023-03-13T19:52:37.896Z,101452.94
2023-03-13T19:57:48.194Z,101459.28
2023-03-13T20:02:46.943Z,101450.69
2023-03-13T20:07:48.613Z,101442.72
2023-03-13T20:12:48.330Z,101440.16
2023-03-13T20:17:47.355Z,101446.19
2023-03-13T20:23:01.899Z,101443.13
2023-03-13T20:28:02.222Z,101442.47
2023-03-13T20:33:02.928Z,101434.66
2023-03-13T20:38:05.371Z,101430.25
2023-03-13T20:43:07.254Z,101423.72
2023-03-13T20:48:09.645Z,101413.19
2023-03-13T20:53:15.214Z,101408.03
2023-03-13T20:58:19.963Z,101416.94
2023-03-13T21:03:48.104Z,101411.44
2023-03-13T21:08:51.244Z,101414.44
2023-03-13T21:13:52.454Z,101415.84
2023-03-13T21:18:51.551Z,101412.81
2023-03-13T21:23:53.283Z,101403.50
2023-03-13T21:28:53.368Z,101404.09
2023-03-13T21:33:52.552Z,101394.00
2023-03-13T21:38:53.114Z,101398.16
2023-03-13T21:44:13.691Z,101381.34
2023-03-13T21:49:13.650Z,101382.19
2023-03-13T21:54:13.888Z,101376.44
2023-03-13T21:59:12.707Z,101363.09
2023-03-13T22:04:11.430Z,101365.41
2023-03-13T22:09:10.349Z,101348.56
2023-03-13T22:14:10.701Z,101346.06
2023-03-13T22:19:09.597Z,101333.81
2023-03-13T22:24:10.156Z,101328.84
2023-03-13T22:29:10.426Z,101317.47
2023-03-13T22:34:09.108Z,101313.94
2023-03-13T22:39:08.127Z,101308.06
2023-03-13T22:44:07.106Z,101305.91
2023-03-13T22:49:07.276Z,101308.66
2023-03-13T22:54:06.155Z,101304.84
2023-03-13T22:59:06.259Z,101297.19
2023-03-13T23:04:07.040Z,101306.03
2023-03-13T23:09:06.587Z,101302.53
2023-03-13T23:14:05.376Z,101300.47
2023-03-13T23:19:07.405Z,101298.38
2023-03-13T23:24:06.870Z,101298.16
2023-03-13T23:29:05.824Z,101294.53
2023-03-13T23:34:04.539Z,101299.53
2023-03-13T23:39:05.736Z,101298.78
2023-03-13T23:44:04.435Z,101300.94
2023-03-13T23:49:03.294Z,101292.75
2023-03-13T23:54:02.109Z,101296.06
2023-03-13T23:59:02.263Z,101295.81
